CheckWX is a tool to help pilots better visualize weather data.  It is not intended as a substitute for an official pre-flight weather briefing.

11:34:01 UTC

AYPY TAF
Port Moresby Jacksons International Airport
Port Moresby, Papua New Guinea
TAF AYPY 140430Z 1406/1506 16010KT 9999 SCT018 SCT040

Oct-14@
06:00 UTC

Oct-14 @ 06:00 UTC

Oct-15@
06:00 UTC

Oct-15 @ 06:00 UTC

TAF AYPY 140430Z 1406/1506 16010KT 9999 SCT018 SCT040
Wind
  • 160° at 10 KTS
Cloud Levels
  • Scattered at 1,800' AGL
  • Scattered at 4,000' AGL